sensor_id;sensor_type;location;lat;lon;timestamp;P1;durP1;ratioP1;P2;durP2;ratioP2
54460;SDS011;40371;49.414;11.010;2022-07-21T00:01:15;3.70;;;3.40;;
54460;SDS011;40371;49.414;11.010;2022-07-21T00:03:41;3.35;;;3.10;;
54460;SDS011;40371;49.414;11.010;2022-07-21T00:06:06;2.95;;;2.75;;
54460;SDS011;40371;49.414;11.010;2022-07-21T00:08:32;3.30;;;3.10;;
54460;SDS011;40371;49.414;11.010;2022-07-21T00:10:58;3.13;;;2.63;;
54460;SDS011;40371;49.414;11.010;2022-07-21T00:13:23;2.85;;;2.58;;
54460;SDS011;40371;49.414;11.010;2022-07-21T00:15:49;3.10;;;2.42;;
54460;SDS011;40371;49.414;11.010;2022-07-21T00:18:16;2.78;;;2.30;;
54460;SDS011;40371;49.414;11.010;2022-07-21T00:20:42;2.97;;;2.60;;
54460;SDS011;40371;49.414;11.010;2022-07-21T00:23:07;3.50;;;1.92;;
54460;SDS011;40371;49.414;11.010;2022-07-21T00:25:33;3.85;;;2.20;;
54460;SDS011;40371;49.414;11.010;2022-07-21T00:27:58;2.25;;;2.03;;
54460;SDS011;40371;49.414;11.010;2022-07-21T00:30:24;3.95;;;2.55;;
54460;SDS011;40371;49.414;11.010;2022-07-21T00:32:50;2.33;;;2.13;;
54460;SDS011;40371;49.414;11.010;2022-07-21T00:35:15;2.90;;;2.10;;
54460;SDS011;40371;49.414;11.010;2022-07-21T00:37:41;2.72;;;2.50;;
54460;SDS011;40371;49.414;11.010;2022-07-21T00:40:08;2.38;;;2.22;;
54460;SDS011;40371;49.414;11.010;2022-07-21T00:42:35;2.47;;;2.33;;
54460;SDS011;40371;49.414;11.010;2022-07-21T00:45:01;2.30;;;2.10;;
54460;SDS011;40371;49.414;11.010;2022-07-21T00:47:29;2.60;;;2.40;;
54460;SDS011;40371;49.414;11.010;2022-07-21T00:49:55;18.52;;;5.45;;
54460;SDS011;40371;49.414;11.010;2022-07-21T00:52:22;8.38;;;3.80;;
54460;SDS011;40371;49.414;11.010;2022-07-21T00:54:48;8.60;;;3.20;;
54460;SDS011;40371;49.414;11.010;2022-07-21T00:57:15;4.80;;;3.28;;
54460;SDS011;40371;49.414;11.010;2022-07-21T00:59:41;4.68;;;3.00;;
54460;SDS011;40371;49.414;11.010;2022-07-21T01:02:07;4.70;;;3.40;;
54460;SDS011;40371;49.414;11.010;2022-07-21T01:04:34;4.28;;;3.80;;
54460;SDS011;40371;49.414;11.010;2022-07-21T01:07:01;5.30;;;3.78;;
54460;SDS011;40371;49.414;11.010;2022-07-21T01:09:27;3.53;;;3.05;;
54460;SDS011;40371;49.414;11.010;2022-07-21T01:11:53;5.25;;;3.38;;
54460;SDS011;40371;49.414;11.010;2022-07-21T01:14:19;4.32;;;3.50;;
54460;SDS011;40371;49.414;11.010;2022-07-21T01:16:45;4.07;;;3.70;;
54460;SDS011;40371;49.414;11.010;2022-07-21T01:19:11;3.78;;;3.47;;
54460;SDS011;40371;49.414;11.010;2022-07-21T01:21:41;6.30;;;3.55;;
54460;SDS011;40371;49.414;11.010;2022-07-21T01:24:09;3.85;;;3.42;;
54460;SDS011;40371;49.414;11.010;2022-07-21T01:26:45;4.05;;;3.55;;
54460;SDS011;40371;49.414;11.010;2022-07-21T01:29:14;3.42;;;2.83;;
54460;SDS011;40371;49.414;11.010;2022-07-21T01:31:41;4.07;;;3.17;;
54460;SDS011;40371;49.414;11.010;2022-07-21T01:34:08;3.75;;;3.42;;
54460;SDS011;40371;49.414;11.010;2022-07-21T01:36:35;5.05;;;3.22;;
54460;SDS011;40371;49.414;11.010;2022-07-21T01:39:01;4.18;;;3.78;;
54460;SDS011;40371;49.414;11.010;2022-07-21T01:41:46;4.03;;;3.67;;
54460;SDS011;40371;49.414;11.010;2022-07-21T01:44:12;5.78;;;3.97;;
54460;SDS011;40371;49.414;11.010;2022-07-21T01:46:40;4.45;;;4.05;;
54460;SDS011;40371;49.414;11.010;2022-07-21T01:49:12;3.92;;;3.55;;
54460;SDS011;40371;49.414;11.010;2022-07-21T01:51:39;4.72;;;3.67;;
54460;SDS011;40371;49.414;11.010;2022-07-21T01:54:05;3.97;;;3.67;;
54460;SDS011;40371;49.414;11.010;2022-07-21T01:56:32;3.78;;;3.38;;
54460;SDS011;40371;49.414;11.010;2022-07-21T01:58:59;4.53;;;4.13;;
54460;SDS011;40371;49.414;11.010;2022-07-21T02:01:25;3.90;;;3.55;;
54460;SDS011;40371;49.414;11.010;2022-07-21T02:03:52;4.15;;;3.83;;
54460;SDS011;40371;49.414;11.010;2022-07-21T02:06:19;5.60;;;4.43;;
54460;SDS011;40371;49.414;11.010;2022-07-21T02:08:45;6.97;;;4.18;;
54460;SDS011;40371;49.414;11.010;2022-07-21T02:11:13;4.03;;;3.72;;
54460;SDS011;40371;49.414;11.010;2022-07-21T02:13:40;4.10;;;3.80;;
54460;SDS011;40371;49.414;11.010;2022-07-21T02:16:05;4.50;;;4.10;;
54460;SDS011;40371;49.414;11.010;2022-07-21T02:18:32;4.45;;;4.15;;
54460;SDS011;40371;49.414;11.010;2022-07-21T02:20:58;6.03;;;3.85;;
54460;SDS011;40371;49.414;11.010;2022-07-21T02:23:23;4.75;;;4.30;;
54460;SDS011;40371;49.414;11.010;2022-07-21T02:25:50;5.90;;;4.53;;
54460;SDS011;40371;49.414;11.010;2022-07-21T02:28:17;5.22;;;4.28;;
54460;SDS011;40371;49.414;11.010;2022-07-21T02:30:46;5.10;;;4.68;;
54460;SDS011;40371;49.414;11.010;2022-07-21T02:33:12;5.38;;;4.88;;
54460;SDS011;40371;49.414;11.010;2022-07-21T02:35:38;4.95;;;4.10;;
54460;SDS011;40371;49.414;11.010;2022-07-21T02:38:05;4.88;;;4.43;;
54460;SDS011;40371;49.414;11.010;2022-07-21T02:40:31;4.82;;;4.38;;
54460;SDS011;40371;49.414;11.010;2022-07-21T02:42:57;5.30;;;4.90;;
54460;SDS011;40371;49.414;11.010;2022-07-21T02:45:23;4.60;;;4.20;;
54460;SDS011;40371;49.414;11.010;2022-07-21T02:50:22;4.47;;;4.07;;
54460;SDS011;40371;49.414;11.010;2022-07-21T02:52:50;4.95;;;4.45;;
54460;SDS011;40371;49.414;11.010;2022-07-21T02:55:18;4.50;;;4.10;;
54460;SDS011;40371;49.414;11.010;2022-07-21T02:57:44;5.30;;;4.80;;
54460;SDS011;40371;49.414;11.010;2022-07-21T03:00:09;5.82;;;4.72;;
54460;SDS011;40371;49.414;11.010;2022-07-21T03:02:36;6.22;;;5.00;;
54460;SDS011;40371;49.414;11.010;2022-07-21T03:05:02;4.60;;;4.30;;
54460;SDS011;40371;49.414;11.010;2022-07-21T03:07:28;4.97;;;4.57;;
54460;SDS011;40371;49.414;11.010;2022-07-21T03:09:54;5.10;;;4.70;;
54460;SDS011;40371;49.414;11.010;2022-07-21T03:12:19;6.53;;;5.68;;
54460;SDS011;40371;49.414;11.010;2022-07-21T03:14:45;4.78;;;4.38;;
54460;SDS011;40371;49.414;11.010;2022-07-21T03:17:11;6.07;;;5.43;;
54460;SDS011;40371;49.414;11.010;2022-07-21T03:19:36;5.72;;;5.22;;
54460;SDS011;40371;49.414;11.010;2022-07-21T03:22:02;4.90;;;4.50;;
54460;SDS011;40371;49.414;11.010;2022-07-21T03:24:28;5.38;;;4.88;;
54460;SDS011;40371;49.414;11.010;2022-07-21T03:26:55;5.18;;;4.78;;
54460;SDS011;40371;49.414;11.010;2022-07-21T03:29:21;5.43;;;5.03;;
54460;SDS011;40371;49.414;11.010;2022-07-21T03:31:47;5.57;;;5.05;;
54460;SDS011;40371;49.414;11.010;2022-07-21T03:34:12;6.38;;;5.20;;
54460;SDS011;40371;49.414;11.010;2022-07-21T03:36:38;5.18;;;4.78;;
54460;SDS011;40371;49.414;11.010;2022-07-21T03:39:04;5.22;;;4.70;;
54460;SDS011;40371;49.414;11.010;2022-07-21T03:41:29;4.90;;;4.60;;
54460;SDS011;40371;49.414;11.010;2022-07-21T03:43:55;7.00;;;5.30;;
54460;SDS011;40371;49.414;11.010;2022-07-21T03:46:20;5.25;;;4.85;;
54460;SDS011;40371;49.414;11.010;2022-07-21T03:48:46;5.95;;;5.35;;
54460;SDS011;40371;49.414;11.010;2022-07-21T03:51:11;6.88;;;5.88;;
54460;SDS011;40371;49.414;11.010;2022-07-21T03:53:37;7.50;;;6.25;;
54460;SDS011;40371;49.414;11.010;2022-07-21T03:56:03;7.03;;;6.43;;
54460;SDS011;40371;49.414;11.010;2022-07-21T03:58:28;7.47;;;6.78;;
54460;SDS011;40371;49.414;11.010;2022-07-21T04:00:54;7.18;;;6.50;;
54460;SDS011;40371;49.414;11.010;2022-07-21T04:03:20;7.40;;;6.70;;
54460;SDS011;40371;49.414;11.010;2022-07-21T04:05:45;7.50;;;6.63;;
54460;SDS011;40371;49.414;11.010;2022-07-21T04:08:11;7.47;;;6.80;;
54460;SDS011;40371;49.414;11.010;2022-07-21T04:10:38;7.53;;;6.90;;
54460;SDS011;40371;49.414;11.010;2022-07-21T04:13:06;7.68;;;6.97;;
54460;SDS011;40371;49.414;11.010;2022-07-21T04:15:33;8.07;;;7.32;;
54460;SDS011;40371;49.414;11.010;2022-07-21T04:17:59;8.32;;;7.63;;
54460;SDS011;40371;49.414;11.010;2022-07-21T04:20:24;8.50;;;7.80;;
54460;SDS011;40371;49.414;11.010;2022-07-21T04:22:50;8.38;;;7.57;;
54460;SDS011;40371;49.414;11.010;2022-07-21T04:25:17;8.88;;;7.75;;
54460;SDS011;40371;49.414;11.010;2022-07-21T04:27:43;8.98;;;7.78;;
54460;SDS011;40371;49.414;11.010;2022-07-21T04:30:10;9.50;;;8.60;;
54460;SDS011;40371;49.414;11.010;2022-07-21T04:32:38;9.48;;;8.55;;
54460;SDS011;40371;49.414;11.010;2022-07-21T04:35:04;9.13;;;8.18;;
54460;SDS011;40371;49.414;11.010;2022-07-21T04:37:31;9.63;;;8.75;;
54460;SDS011;40371;49.414;11.010;2022-07-21T04:39:56;10.60;;;8.40;;
54460;SDS011;40371;49.414;11.010;2022-07-21T04:42:22;9.50;;;8.70;;
54460;SDS011;40371;49.414;11.010;2022-07-21T04:44:47;9.55;;;8.85;;
54460;SDS011;40371;49.414;11.010;2022-07-21T04:47:13;10.98;;;9.93;;
54460;SDS011;40371;49.414;11.010;2022-07-21T04:49:39;11.48;;;10.40;;
54460;SDS011;40371;49.414;11.010;2022-07-21T04:52:05;11.40;;;10.40;;
54460;SDS011;40371;49.414;11.010;2022-07-21T04:54:30;11.05;;;10.05;;
54460;SDS011;40371;49.414;11.010;2022-07-21T04:56:56;10.98;;;9.85;;
54460;SDS011;40371;49.414;11.010;2022-07-21T04:59:22;11.40;;;10.40;;
54460;SDS011;40371;49.414;11.010;2022-07-21T05:01:47;11.73;;;10.70;;
54460;SDS011;40371;49.414;11.010;2022-07-21T05:04:13;12.00;;;10.52;;
54460;SDS011;40371;49.414;11.010;2022-07-21T05:06:39;11.52;;;10.50;;
54460;SDS011;40371;49.414;11.010;2022-07-21T05:09:04;12.45;;;11.35;;
54460;SDS011;40371;49.414;11.010;2022-07-21T05:11:30;12.10;;;11.00;;
54460;SDS011;40371;49.414;11.010;2022-07-21T05:13:56;12.40;;;11.40;;
54460;SDS011;40371;49.414;11.010;2022-07-21T05:16:22;12.15;;;10.95;;
54460;SDS011;40371;49.414;11.010;2022-07-21T05:18:48;12.65;;;11.63;;
54460;SDS011;40371;49.414;11.010;2022-07-21T05:21:14;13.35;;;12.10;;
54460;SDS011;40371;49.414;11.010;2022-07-21T05:23:40;13.02;;;11.82;;
54460;SDS011;40371;49.414;11.010;2022-07-21T05:26:05;11.90;;;10.95;;
54460;SDS011;40371;49.414;11.010;2022-07-21T05:28:31;12.77;;;11.57;;
54460;SDS011;40371;49.414;11.010;2022-07-21T05:30:57;13.20;;;11.88;;
54460;SDS011;40371;49.414;11.010;2022-07-21T05:33:22;12.35;;;11.07;;
54460;SDS011;40371;49.414;11.010;2022-07-21T05:35:48;13.82;;;12.52;;
54460;SDS011;40371;49.414;11.010;2022-07-21T05:38:14;14.13;;;12.93;;
54460;SDS011;40371;49.414;11.010;2022-07-21T05:40:39;13.02;;;11.77;;
54460;SDS011;40371;49.414;11.010;2022-07-21T05:43:05;13.23;;;12.02;;
54460;SDS011;40371;49.414;11.010;2022-07-21T05:45:31;13.18;;;11.85;;
54460;SDS011;40371;49.414;11.010;2022-07-21T05:47:56;13.47;;;12.27;;
54460;SDS011;40371;49.414;11.010;2022-07-21T05:50:22;14.90;;;13.50;;
54460;SDS011;40371;49.414;11.010;2022-07-21T05:52:48;13.43;;;12.23;;
54460;SDS011;40371;49.414;11.010;2022-07-21T05:55:14;12.43;;;11.43;;
54460;SDS011;40371;49.414;11.010;2022-07-21T05:57:40;12.35;;;11.25;;
54460;SDS011;40371;49.414;11.010;2022-07-21T06:00:06;13.60;;;12.32;;
54460;SDS011;40371;49.414;11.010;2022-07-21T06:03:01;13.85;;;12.63;;
54460;SDS011;40371;49.414;11.010;2022-07-21T06:05:25;12.35;;;11.18;;
54460;SDS011;40371;49.414;11.010;2022-07-21T06:07:50;14.05;;;12.85;;
54460;SDS011;40371;49.414;11.010;2022-07-21T06:10:16;14.50;;;13.00;;
54460;SDS011;40371;49.414;11.010;2022-07-21T06:12:42;14.60;;;13.13;;
54460;SDS011;40371;49.414;11.010;2022-07-21T06:15:09;14.48;;;13.10;;
54460;SDS011;40371;49.414;11.010;2022-07-21T06:17:42;13.65;;;12.45;;
54460;SDS011;40371;49.414;11.010;2022-07-21T06:20:10;13.32;;;12.23;;
54460;SDS011;40371;49.414;11.010;2022-07-21T06:22:36;13.32;;;12.23;;
54460;SDS011;40371;49.414;11.010;2022-07-21T06:25:02;15.02;;;13.65;;
54460;SDS011;40371;49.414;11.010;2022-07-21T06:27:28;14.18;;;12.65;;
54460;SDS011;40371;49.414;11.010;2022-07-21T06:29:54;14.50;;;13.05;;
54460;SDS011;40371;49.414;11.010;2022-07-21T06:32:22;14.18;;;12.93;;
54460;SDS011;40371;49.414;11.010;2022-07-21T06:34:48;13.05;;;11.88;;
54460;SDS011;40371;49.414;11.010;2022-07-21T06:37:13;13.48;;;12.02;;
54460;SDS011;40371;49.414;11.010;2022-07-21T06:39:39;12.98;;;11.95;;
54460;SDS011;40371;49.414;11.010;2022-07-21T06:42:06;13.40;;;12.10;;
54460;SDS011;40371;49.414;11.010;2022-07-21T06:44:35;13.80;;;12.60;;
54460;SDS011;40371;49.414;11.010;2022-07-21T06:47:00;12.27;;;11.27;;
54460;SDS011;40371;49.414;11.010;2022-07-21T06:49:32;13.02;;;11.95;;
54460;SDS011;40371;49.414;11.010;2022-07-21T06:51:58;13.60;;;12.18;;
54460;SDS011;40371;49.414;11.010;2022-07-21T06:54:23;13.00;;;11.88;;
54460;SDS011;40371;49.414;11.010;2022-07-21T06:56:49;13.13;;;11.98;;
54460;SDS011;40371;49.414;11.010;2022-07-21T06:59:15;13.55;;;12.27;;
54460;SDS011;40371;49.414;11.010;2022-07-21T07:01:40;12.93;;;11.57;;
54460;SDS011;40371;49.414;11.010;2022-07-21T07:04:06;12.95;;;11.13;;
54460;SDS011;40371;49.414;11.010;2022-07-21T07:06:32;13.30;;;12.10;;
54460;SDS011;40371;49.414;11.010;2022-07-21T07:08:58;12.55;;;11.55;;
54460;SDS011;40371;49.414;11.010;2022-07-21T07:11:23;12.90;;;11.70;;
54460;SDS011;40371;49.414;11.010;2022-07-21T07:13:49;12.90;;;11.80;;
54460;SDS011;40371;49.414;11.010;2022-07-21T07:16:14;13.13;;;12.02;;
54460;SDS011;40371;49.414;11.010;2022-07-21T07:18:40;13.80;;;12.60;;
54460;SDS011;40371;49.414;11.010;2022-07-21T07:21:06;19.48;;;17.75;;
54460;SDS011;40371;49.414;11.010;2022-07-21T07:23:31;13.38;;;12.07;;
54460;SDS011;40371;49.414;11.010;2022-07-21T07:25:57;13.98;;;12.27;;
54460;SDS011;40371;49.414;11.010;2022-07-21T07:28:22;16.98;;;15.48;;
54460;SDS011;40371;49.414;11.010;2022-07-21T07:30:48;13.23;;;12.13;;
54460;SDS011;40371;49.414;11.010;2022-07-21T07:33:14;12.77;;;11.77;;
54460;SDS011;40371;49.414;11.010;2022-07-21T07:35:40;14.07;;;12.77;;
54460;SDS011;40371;49.414;11.010;2022-07-21T07:38:05;12.32;;;11.23;;
54460;SDS011;40371;49.414;11.010;2022-07-21T07:40:31;14.43;;;13.10;;
54460;SDS011;40371;49.414;11.010;2022-07-21T07:42:57;13.35;;;12.18;;
54460;SDS011;40371;49.414;11.010;2022-07-21T07:45:22;12.73;;;11.50;;
54460;SDS011;40371;49.414;11.010;2022-07-21T07:47:48;12.48;;;11.48;;
54460;SDS011;40371;49.414;11.010;2022-07-21T07:50:14;13.13;;;11.93;;
54460;SDS011;40371;49.414;11.010;2022-07-21T07:52:41;13.18;;;11.95;;
54460;SDS011;40371;49.414;11.010;2022-07-21T07:55:08;13.85;;;12.55;;
54460;SDS011;40371;49.414;11.010;2022-07-21T07:57:35;12.93;;;11.60;;
54460;SDS011;40371;49.414;11.010;2022-07-21T08:00:07;11.43;;;10.52;;
54460;SDS011;40371;49.414;11.010;2022-07-21T08:02:38;13.25;;;12.05;;
54460;SDS011;40371;49.414;11.010;2022-07-21T08:05:04;11.30;;;10.40;;
54460;SDS011;40371;49.414;11.010;2022-07-21T08:07:30;11.25;;;10.10;;
54460;SDS011;40371;49.414;11.010;2022-07-21T08:09:56;12.02;;;11.05;;
54460;SDS011;40371;49.414;11.010;2022-07-21T08:12:21;12.52;;;11.25;;
54460;SDS011;40371;49.414;11.010;2022-07-21T08:14:47;11.98;;;10.98;;
54460;SDS011;40371;49.414;11.010;2022-07-21T08:17:13;11.18;;;10.18;;
54460;SDS011;40371;49.414;11.010;2022-07-21T08:19:38;10.85;;;10.05;;
54460;SDS011;40371;49.414;11.010;2022-07-21T08:22:04;10.68;;;9.88;;
54460;SDS011;40371;49.414;11.010;2022-07-21T08:24:30;10.73;;;9.85;;
54460;SDS011;40371;49.414;11.010;2022-07-21T08:26:55;9.70;;;8.88;;
54460;SDS011;40371;49.414;11.010;2022-07-21T08:29:21;9.85;;;9.00;;
54460;SDS011;40371;49.414;11.010;2022-07-21T08:31:47;9.90;;;8.77;;
54460;SDS011;40371;49.414;11.010;2022-07-21T08:34:12;9.00;;;8.27;;
54460;SDS011;40371;49.414;11.010;2022-07-21T08:36:38;10.05;;;8.60;;
54460;SDS011;40371;49.414;11.010;2022-07-21T08:39:04;9.32;;;8.40;;
54460;SDS011;40371;49.414;11.010;2022-07-21T08:41:31;8.60;;;7.90;;
54460;SDS011;40371;49.414;11.010;2022-07-21T08:43:57;8.15;;;7.32;;
54460;SDS011;40371;49.414;11.010;2022-07-21T08:46:23;7.75;;;7.03;;
54460;SDS011;40371;49.414;11.010;2022-07-21T08:48:49;8.02;;;7.25;;
54460;SDS011;40371;49.414;11.010;2022-07-21T08:51:15;8.50;;;7.80;;
54460;SDS011;40371;49.414;11.010;2022-07-21T08:53:45;7.15;;;6.55;;
54460;SDS011;40371;49.414;11.010;2022-07-21T08:56:12;7.85;;;7.15;;
54460;SDS011;40371;49.414;11.010;2022-07-21T08:58:38;7.85;;;7.00;;
54460;SDS011;40371;49.414;11.010;2022-07-21T09:01:04;7.32;;;6.65;;
54460;SDS011;40371;49.414;11.010;2022-07-21T09:03:29;7.30;;;6.60;;
54460;SDS011;40371;49.414;11.010;2022-07-21T09:08:39;6.82;;;6.22;;
54460;SDS011;40371;49.414;11.010;2022-07-21T09:11:22;6.88;;;6.38;;
54460;SDS011;40371;49.414;11.010;2022-07-21T09:14:03;7.10;;;6.50;;
54460;SDS011;40371;49.414;11.010;2022-07-21T09:16:34;7.22;;;6.07;;
54460;SDS011;40371;49.414;11.010;2022-07-21T09:19:05;7.03;;;6.40;;
54460;SDS011;40371;49.414;11.010;2022-07-21T09:21:33;6.80;;;6.30;;
54460;SDS011;40371;49.414;11.010;2022-07-21T09:29:44;6.63;;;6.05;;
54460;SDS011;40371;49.414;11.010;2022-07-21T09:32:33;6.05;;;5.45;;
54460;SDS011;40371;49.414;11.010;2022-07-21T09:35:01;6.00;;;5.50;;
54460;SDS011;40371;49.414;11.010;2022-07-21T09:37:32;6.30;;;5.80;;
54460;SDS011;40371;49.414;11.010;2022-07-21T09:40:00;5.38;;;4.93;;
54460;SDS011;40371;49.414;11.010;2022-07-21T09:42:38;6.53;;;5.70;;
54460;SDS011;40371;49.414;11.010;2022-07-21T09:45:08;6.55;;;5.88;;
54460;SDS011;40371;49.414;11.010;2022-07-21T09:47:41;8.18;;;7.43;;
54460;SDS011;40371;49.414;11.010;2022-07-21T09:50:08;7.53;;;6.82;;
54460;SDS011;40371;49.414;11.010;2022-07-21T09:52:36;6.38;;;5.88;;
54460;SDS011;40371;49.414;11.010;2022-07-21T09:55:05;6.15;;;5.65;;
54460;SDS011;40371;49.414;11.010;2022-07-21T10:00:16;6.93;;;5.60;;
54460;SDS011;40371;49.414;11.010;2022-07-21T10:02:44;5.45;;;5.05;;
54460;SDS011;40371;49.414;11.010;2022-07-21T10:05:15;6.22;;;5.65;;
54460;SDS011;40371;49.414;11.010;2022-07-21T10:07:44;8.82;;;8.02;;
54460;SDS011;40371;49.414;11.010;2022-07-21T10:10:11;5.88;;;5.30;;
54460;SDS011;40371;49.414;11.010;2022-07-21T10:12:37;5.85;;;5.35;;
54460;SDS011;40371;49.414;11.010;2022-07-21T10:15:04;5.95;;;5.45;;
54460;SDS011;40371;49.414;11.010;2022-07-21T10:17:30;5.10;;;4.70;;
54460;SDS011;40371;49.414;11.010;2022-07-21T10:20:13;5.60;;;5.10;;
54460;SDS011;40371;49.414;11.010;2022-07-21T10:25:41;6.28;;;5.68;;
54460;SDS011;40371;49.414;11.010;2022-07-21T10:30:43;6.82;;;6.22;;
54460;SDS011;40371;49.414;11.010;2022-07-21T10:33:20;8.98;;;7.03;;
54460;SDS011;40371;49.414;11.010;2022-07-21T10:36:06;4.63;;;4.22;;
54460;SDS011;40371;49.414;11.010;2022-07-21T10:38:33;4.70;;;4.30;;
54460;SDS011;40371;49.414;11.010;2022-07-21T10:41:00;5.22;;;4.63;;
54460;SDS011;40371;49.414;11.010;2022-07-21T10:45:54;4.28;;;3.97;;
54460;SDS011;40371;49.414;11.010;2022-07-21T10:51:07;3.40;;;3.20;;
54460;SDS011;40371;49.414;11.010;2022-07-21T10:53:35;3.30;;;3.00;;
54460;SDS011;40371;49.414;11.010;2022-07-21T10:56:01;2.90;;;2.67;;
54460;SDS011;40371;49.414;11.010;2022-07-21T11:03:41;2.47;;;2.20;;
54460;SDS011;40371;49.414;11.010;2022-07-21T11:06:11;2.70;;;2.50;;
54460;SDS011;40371;49.414;11.010;2022-07-21T11:08:40;2.70;;;2.50;;
54460;SDS011;40371;49.414;11.010;2022-07-21T11:11:19;2.67;;;2.47;;
54460;SDS011;40371;49.414;11.010;2022-07-21T11:13:59;2.80;;;2.30;;
54460;SDS011;40371;49.414;11.010;2022-07-21T11:22:05;3.72;;;2.55;;
54460;SDS011;40371;49.414;11.010;2022-07-21T11:24:34;2.75;;;2.55;;
54460;SDS011;40371;49.414;11.010;2022-07-21T11:29:31;2.88;;;2.67;;
54460;SDS011;40371;49.414;11.010;2022-07-21T11:31:59;2.80;;;2.60;;
54460;SDS011;40371;49.414;11.010;2022-07-21T11:34:36;3.25;;;2.80;;
54460;SDS011;40371;49.414;11.010;2022-07-21T11:37:02;3.60;;;2.60;;
54460;SDS011;40371;49.414;11.010;2022-07-21T11:39:28;3.03;;;2.83;;
54460;SDS011;40371;49.414;11.010;2022-07-21T11:41:53;3.15;;;2.85;;
54460;SDS011;40371;49.414;11.010;2022-07-21T11:44:23;3.13;;;2.55;;
54460;SDS011;40371;49.414;11.010;2022-07-21T11:46:54;2.70;;;2.50;;
54460;SDS011;40371;49.414;11.010;2022-07-21T11:49:21;2.50;;;2.33;;
54460;SDS011;40371;49.414;11.010;2022-07-21T11:51:47;2.53;;;2.38;;
54460;SDS011;40371;49.414;11.010;2022-07-21T11:54:25;3.13;;;2.40;;
54460;SDS011;40371;49.414;11.010;2022-07-21T11:56:52;2.65;;;2.45;;
54460;SDS011;40371;49.414;11.010;2022-07-21T11:59:19;2.42;;;2.28;;
54460;SDS011;40371;49.414;11.010;2022-07-21T12:01:49;2.33;;;2.13;;
54460;SDS011;40371;49.414;11.010;2022-07-21T12:04:26;2.47;;;2.28;;
54460;SDS011;40371;49.414;11.010;2022-07-21T12:06:52;2.92;;;2.72;;
54460;SDS011;40371;49.414;11.010;2022-07-21T12:09:17;3.90;;;3.55;;
54460;SDS011;40371;49.414;11.010;2022-07-21T12:11:43;2.63;;;2.42;;
54460;SDS011;40371;49.414;11.010;2022-07-21T12:14:09;2.55;;;2.33;;
54460;SDS011;40371;49.414;11.010;2022-07-21T12:16:46;2.40;;;2.30;;
54460;SDS011;40371;49.414;11.010;2022-07-21T12:19:16;2.75;;;2.50;;
54460;SDS011;40371;49.414;11.010;2022-07-21T12:21:46;2.40;;;2.30;;
54460;SDS011;40371;49.414;11.010;2022-07-21T12:24:12;2.60;;;2.40;;
54460;SDS011;40371;49.414;11.010;2022-07-21T12:26:38;3.83;;;2.97;;
54460;SDS011;40371;49.414;11.010;2022-07-21T12:29:04;2.33;;;2.22;;
54460;SDS011;40371;49.414;11.010;2022-07-21T12:31:29;2.60;;;2.40;;
54460;SDS011;40371;49.414;11.010;2022-07-21T12:33:59;2.70;;;2.60;;
54460;SDS011;40371;49.414;11.010;2022-07-21T12:36:37;2.67;;;2.47;;
54460;SDS011;40371;49.414;11.010;2022-07-21T12:39:13;2.40;;;2.25;;
54460;SDS011;40371;49.414;11.010;2022-07-21T12:41:59;2.65;;;2.50;;
54460;SDS011;40371;49.414;11.010;2022-07-21T12:44:25;3.17;;;2.70;;
54460;SDS011;40371;49.414;11.010;2022-07-21T12:46:51;2.78;;;2.58;;
54460;SDS011;40371;49.414;11.010;2022-07-21T12:49:17;2.47;;;2.30;;
54460;SDS011;40371;49.414;11.010;2022-07-21T12:51:43;2.53;;;2.35;;
54460;SDS011;40371;49.414;11.010;2022-07-21T12:54:21;2.50;;;2.40;;
54460;SDS011;40371;49.414;11.010;2022-07-21T12:56:46;2.90;;;2.65;;
54460;SDS011;40371;49.414;11.010;2022-07-21T12:59:12;2.95;;;2.40;;
54460;SDS011;40371;49.414;11.010;2022-07-21T13:01:39;2.97;;;2.67;;
54460;SDS011;40371;49.414;11.010;2022-07-21T13:04:05;2.60;;;2.40;;
54460;SDS011;40371;49.414;11.010;2022-07-21T13:06:31;2.75;;;2.65;;
54460;SDS011;40371;49.414;11.010;2022-07-21T13:08:56;2.75;;;2.60;;
54460;SDS011;40371;49.414;11.010;2022-07-21T13:11:22;3.13;;;2.92;;
54460;SDS011;40371;49.414;11.010;2022-07-21T13:13:48;3.85;;;2.35;;
54460;SDS011;40371;49.414;11.010;2022-07-21T13:16:16;2.70;;;2.50;;
54460;SDS011;40371;49.414;11.010;2022-07-21T13:18:42;3.03;;;2.47;;
54460;SDS011;40371;49.414;11.010;2022-07-21T13:21:08;3.65;;;2.55;;
54460;SDS011;40371;49.414;11.010;2022-07-21T13:23:33;2.20;;;2.10;;
54460;SDS011;40371;49.414;11.010;2022-07-21T13:25:59;2.92;;;2.72;;
54460;SDS011;40371;49.414;11.010;2022-07-21T13:28:25;2.65;;;2.45;;
54460;SDS011;40371;49.414;11.010;2022-07-21T13:30:50;2.75;;;2.30;;
54460;SDS011;40371;49.414;11.010;2022-07-21T13:33:16;2.83;;;2.63;;
54460;SDS011;40371;49.414;11.010;2022-07-21T13:35:42;3.42;;;2.58;;
54460;SDS011;40371;49.414;11.010;2022-07-21T13:38:08;2.72;;;2.53;;
54460;SDS011;40371;49.414;11.010;2022-07-21T13:40:34;2.90;;;2.58;;
54460;SDS011;40371;49.414;11.010;2022-07-21T13:43:00;4.90;;;2.60;;
54460;SDS011;40371;49.414;11.010;2022-07-21T13:45:25;2.95;;;2.75;;
54460;SDS011;40371;49.414;11.010;2022-07-21T13:47:51;3.17;;;2.40;;
54460;SDS011;40371;49.414;11.010;2022-07-21T13:50:16;2.75;;;2.55;;
54460;SDS011;40371;49.414;11.010;2022-07-21T13:52:42;2.72;;;2.53;;
54460;SDS011;40371;49.414;11.010;2022-07-21T13:55:08;2.65;;;2.45;;
54460;SDS011;40371;49.414;11.010;2022-07-21T13:57:35;2.55;;;2.35;;
54460;SDS011;40371;49.414;11.010;2022-07-21T14:00:05;2.90;;;2.70;;
54460;SDS011;40371;49.414;11.010;2022-07-21T14:02:33;3.67;;;2.50;;
54460;SDS011;40371;49.414;11.010;2022-07-21T14:04:58;3.75;;;2.60;;
54460;SDS011;40371;49.414;11.010;2022-07-21T14:07:24;3.13;;;2.88;;
54460;SDS011;40371;49.414;11.010;2022-07-21T14:09:50;2.90;;;2.70;;
54460;SDS011;40371;49.414;11.010;2022-07-21T14:12:15;5.88;;;5.45;;
54460;SDS011;40371;49.414;11.010;2022-07-21T14:14:43;2.88;;;2.50;;
54460;SDS011;40371;49.414;11.010;2022-07-21T14:17:12;2.72;;;2.47;;
54460;SDS011;40371;49.414;11.010;2022-07-21T14:19:42;19.80;;;18.02;;
54460;SDS011;40371;49.414;11.010;2022-07-21T14:22:09;4.60;;;3.05;;
54460;SDS011;40371;49.414;11.010;2022-07-21T14:24:35;3.17;;;2.88;;
54460;SDS011;40371;49.414;11.010;2022-07-21T14:27:19;2.97;;;2.72;;
54460;SDS011;40371;49.414;11.010;2022-07-21T14:29:45;3.05;;;2.80;;
54460;SDS011;40371;49.414;11.010;2022-07-21T14:32:10;4.32;;;2.90;;
54460;SDS011;40371;49.414;11.010;2022-07-21T14:34:36;4.38;;;2.90;;
54460;SDS011;40371;49.414;11.010;2022-07-21T14:37:01;3.53;;;3.20;;
54460;SDS011;40371;49.414;11.010;2022-07-21T14:39:27;3.20;;;2.83;;
54460;SDS011;40371;49.414;11.010;2022-07-21T14:41:52;3.10;;;2.90;;
54460;SDS011;40371;49.414;11.010;2022-07-21T14:44:18;5.75;;;3.25;;
54460;SDS011;40371;49.414;11.010;2022-07-21T14:46:44;3.95;;;3.00;;
54460;SDS011;40371;49.414;11.010;2022-07-21T14:49:09;3.45;;;3.15;;
54460;SDS011;40371;49.414;11.010;2022-07-21T14:51:35;4.10;;;3.70;;
54460;SDS011;40371;49.414;11.010;2022-07-21T14:54:00;3.75;;;3.30;;
54460;SDS011;40371;49.414;11.010;2022-07-21T14:56:26;3.00;;;2.80;;
54460;SDS011;40371;49.414;11.010;2022-07-21T14:58:52;3.10;;;2.83;;
54460;SDS011;40371;49.414;11.010;2022-07-21T15:01:17;3.45;;;3.15;;
54460;SDS011;40371;49.414;11.010;2022-07-21T15:03:43;2.78;;;2.67;;
54460;SDS011;40371;49.414;11.010;2022-07-21T15:06:08;3.17;;;2.90;;